Terminal Aerodrome Forecast
Issued by NWS

Home | Current Version | Previous Version | Text Only | Print | Product List | Glossary On
Versions: 1 2 3 4 5 6 7 8 9 10 11 12 13 14 15 16
000
FTUS44 KLIX 231137
TAFHDC
TAF
KHDC 231137Z 2312/2412 00000KT P6SM SKC
     FM231300 VRB03KT P6SM FEW030 SCT110
     FM231500 VRB04KT P6SM SCT035
     FM231700 VRB03KT P6SM VCTS SCT035CB BKN100
     FM232100 20004KT P6SM SCT035 BKN100=

USA.gov is the U.S. government's official web portal to all federal, state and local government web resources and services.